sensor_id;sensor_type;location;lat;lon;timestamp;P1;durP1;ratioP1;P2;durP2;ratioP2
22622;SDS011;11478;51.094;7.030;2023-07-29T00:03:39;13.93;;;4.85;;
22622;SDS011;11478;51.094;7.030;2023-07-29T00:06:06;7.57;;;4.70;;
22622;SDS011;11478;51.094;7.030;2023-07-29T00:08:32;6.53;;;4.60;;
22622;SDS011;11478;51.094;7.030;2023-07-29T00:10:58;9.57;;;4.85;;
22622;SDS011;11478;51.094;7.030;2023-07-29T00:15:54;11.48;;;5.55;;
22622;SDS011;11478;51.094;7.030;2023-07-29T00:18:23;10.13;;;4.72;;
22622;SDS011;11478;51.094;7.030;2023-07-29T00:20:49;12.52;;;4.97;;
22622;SDS011;11478;51.094;7.030;2023-07-29T00:25:44;12.73;;;4.70;;
22622;SDS011;11478;51.094;7.030;2023-07-29T00:28:16;9.75;;;4.50;;
22622;SDS011;11478;51.094;7.030;2023-07-29T00:30:41;8.65;;;4.97;;
22622;SDS011;11478;51.094;7.030;2023-07-29T00:35:38;11.68;;;4.45;;
22622;SDS011;11478;51.094;7.030;2023-07-29T00:38:04;10.70;;;5.10;;
22622;SDS011;11478;51.094;7.030;2023-07-29T00:43:03;8.88;;;4.65;;
22622;SDS011;11478;51.094;7.030;2023-07-29T00:45:29;9.77;;;4.78;;
22622;SDS011;11478;51.094;7.030;2023-07-29T00:47:56;9.15;;;4.88;;
22622;SDS011;11478;51.094;7.030;2023-07-29T00:50:26;11.25;;;5.05;;
22622;SDS011;11478;51.094;7.030;2023-07-29T00:52:54;13.00;;;5.15;;
22622;SDS011;11478;51.094;7.030;2023-07-29T00:55:25;7.90;;;4.65;;
22622;SDS011;11478;51.094;7.030;2023-07-29T00:57:51;6.80;;;4.65;;
22622;SDS011;11478;51.094;7.030;2023-07-29T01:00:20;8.15;;;4.82;;
22622;SDS011;11478;51.094;7.030;2023-07-29T01:02:46;13.95;;;5.05;;
22622;SDS011;11478;51.094;7.030;2023-07-29T01:05:18;8.38;;;4.82;;
22622;SDS011;11478;51.094;7.030;2023-07-29T01:07:47;7.45;;;4.47;;
22622;SDS011;11478;51.094;7.030;2023-07-29T01:13:33;7.28;;;4.43;;
22622;SDS011;11478;51.094;7.030;2023-07-29T01:16:30;6.80;;;4.70;;
22622;SDS011;11478;51.094;7.030;2023-07-29T01:19:22;6.32;;;4.50;;
22622;SDS011;11478;51.094;7.030;2023-07-29T01:22:12;9.98;;;5.28;;
22622;SDS011;11478;51.094;7.030;2023-07-29T01:24:40;10.02;;;4.57;;
22622;SDS011;11478;51.094;7.030;2023-07-29T01:27:05;10.18;;;5.20;;
22622;SDS011;11478;51.094;7.030;2023-07-29T01:29:32;9.45;;;5.30;;
22622;SDS011;11478;51.094;7.030;2023-07-29T01:32:01;11.07;;;5.40;;
22622;SDS011;11478;51.094;7.030;2023-07-29T01:34:39;12.35;;;5.45;;
22622;SDS011;11478;51.094;7.030;2023-07-29T01:37:15;10.25;;;5.55;;
22622;SDS011;11478;51.094;7.030;2023-07-29T01:39:47;6.32;;;4.72;;
22622;SDS011;11478;51.094;7.030;2023-07-29T01:42:15;13.70;;;4.97;;
22622;SDS011;11478;51.094;7.030;2023-07-29T01:44:43;13.00;;;5.90;;
22622;SDS011;11478;51.094;7.030;2023-07-29T01:47:09;8.10;;;4.65;;
22622;SDS011;11478;51.094;7.030;2023-07-29T01:49:38;11.85;;;5.43;;
22622;SDS011;11478;51.094;7.030;2023-07-29T01:52:04;9.35;;;4.53;;
22622;SDS011;11478;51.094;7.030;2023-07-29T01:54:31;7.38;;;4.95;;
22622;SDS011;11478;51.094;7.030;2023-07-29T01:56:57;9.13;;;4.95;;
22622;SDS011;11478;51.094;7.030;2023-07-29T01:59:23;9.88;;;5.07;;
22622;SDS011;11478;51.094;7.030;2023-07-29T02:01:49;9.68;;;5.03;;
22622;SDS011;11478;51.094;7.030;2023-07-29T02:04:19;5.50;;;4.63;;
22622;SDS011;11478;51.094;7.030;2023-07-29T02:06:44;10.23;;;5.70;;
22622;SDS011;11478;51.094;7.030;2023-07-29T02:09:10;9.88;;;4.90;;
22622;SDS011;11478;51.094;7.030;2023-07-29T02:11:36;8.35;;;5.00;;
22622;SDS011;11478;51.094;7.030;2023-07-29T02:14:04;8.75;;;5.07;;
22622;SDS011;11478;51.094;7.030;2023-07-29T02:16:29;8.20;;;4.80;;
22622;SDS011;11478;51.094;7.030;2023-07-29T02:18:57;5.22;;;3.95;;
22622;SDS011;11478;51.094;7.030;2023-07-29T02:21:23;10.07;;;5.05;;
22622;SDS011;11478;51.094;7.030;2023-07-29T02:23:55;10.68;;;4.90;;
22622;SDS011;11478;51.094;7.030;2023-07-29T02:26:22;7.57;;;5.18;;
22622;SDS011;11478;51.094;7.030;2023-07-29T02:28:49;10.82;;;5.38;;
22622;SDS011;11478;51.094;7.030;2023-07-29T02:33:55;9.70;;;4.50;;
22622;SDS011;11478;51.094;7.030;2023-07-29T02:36:21;5.97;;;4.20;;
22622;SDS011;11478;51.094;7.030;2023-07-29T02:38:52;13.80;;;5.65;;
22622;SDS011;11478;51.094;7.030;2023-07-29T02:41:27;11.48;;;5.15;;
22622;SDS011;11478;51.094;7.030;2023-07-29T02:43:53;10.68;;;5.43;;
22622;SDS011;11478;51.094;7.030;2023-07-29T02:46:23;8.98;;;5.80;;
22622;SDS011;11478;51.094;7.030;2023-07-29T02:48:49;8.60;;;5.00;;
22622;SDS011;11478;51.094;7.030;2023-07-29T02:51:22;6.75;;;5.07;;
22622;SDS011;11478;51.094;7.030;2023-07-29T02:53:47;7.70;;;5.43;;
22622;SDS011;11478;51.094;7.030;2023-07-29T02:56:15;9.48;;;5.35;;
22622;SDS011;11478;51.094;7.030;2023-07-29T02:58:41;5.40;;;4.90;;
22622;SDS011;11478;51.094;7.030;2023-07-29T03:04:04;7.28;;;4.80;;
22622;SDS011;11478;51.094;7.030;2023-07-29T03:06:30;19.10;;;6.32;;
22622;SDS011;11478;51.094;7.030;2023-07-29T03:08:56;8.43;;;5.95;;
22622;SDS011;11478;51.094;7.030;2023-07-29T03:11:23;8.57;;;5.55;;
22622;SDS011;11478;51.094;7.030;2023-07-29T03:13:50;10.60;;;6.05;;
22622;SDS011;11478;51.094;7.030;2023-07-29T03:16:16;9.73;;;5.60;;
22622;SDS011;11478;51.094;7.030;2023-07-29T03:18:44;13.27;;;6.20;;
22622;SDS011;11478;51.094;7.030;2023-07-29T03:21:10;11.80;;;5.72;;
22622;SDS011;11478;51.094;7.030;2023-07-29T03:23:40;7.57;;;5.65;;
22622;SDS011;11478;51.094;7.030;2023-07-29T03:26:06;10.15;;;5.43;;
22622;SDS011;11478;51.094;7.030;2023-07-29T03:28:50;7.75;;;5.40;;
22622;SDS011;11478;51.094;7.030;2023-07-29T03:31:16;6.13;;;5.40;;
22622;SDS011;11478;51.094;7.030;2023-07-29T03:33:49;6.88;;;5.38;;
22622;SDS011;11478;51.094;7.030;2023-07-29T03:36:15;15.68;;;6.45;;
22622;SDS011;11478;51.094;7.030;2023-07-29T03:38:43;6.25;;;5.45;;
22622;SDS011;11478;51.094;7.030;2023-07-29T03:41:10;10.77;;;5.90;;
22622;SDS011;11478;51.094;7.030;2023-07-29T03:43:36;11.68;;;6.13;;
22622;SDS011;11478;51.094;7.030;2023-07-29T03:51:15;9.45;;;6.40;;
22622;SDS011;11478;51.094;7.030;2023-07-29T03:53:40;14.23;;;7.47;;
22622;SDS011;11478;51.094;7.030;2023-07-29T03:56:15;8.98;;;6.25;;
22622;SDS011;11478;51.094;7.030;2023-07-29T03:58:42;9.15;;;5.70;;
22622;SDS011;11478;51.094;7.030;2023-07-29T04:01:15;15.20;;;6.57;;
22622;SDS011;11478;51.094;7.030;2023-07-29T04:03:41;6.95;;;5.88;;
22622;SDS011;11478;51.094;7.030;2023-07-29T04:06:13;9.65;;;6.35;;
22622;SDS011;11478;51.094;7.030;2023-07-29T04:08:39;10.18;;;5.60;;
22622;SDS011;11478;51.094;7.030;2023-07-29T04:14:09;13.88;;;7.00;;
22622;SDS011;11478;51.094;7.030;2023-07-29T04:19:06;15.77;;;7.78;;
22622;SDS011;11478;51.094;7.030;2023-07-29T04:28:16;8.15;;;5.60;;
22622;SDS011;11478;51.094;7.030;2023-07-29T04:30:44;9.30;;;6.22;;
22622;SDS011;11478;51.094;7.030;2023-07-29T04:33:09;7.43;;;5.75;;
22622;SDS011;11478;51.094;7.030;2023-07-29T04:35:50;7.72;;;6.00;;
22622;SDS011;11478;51.094;7.030;2023-07-29T04:38:16;11.77;;;6.28;;
22622;SDS011;11478;51.094;7.030;2023-07-29T04:40:41;13.73;;;7.25;;
22622;SDS011;11478;51.094;7.030;2023-07-29T04:43:08;10.52;;;7.20;;
22622;SDS011;11478;51.094;7.030;2023-07-29T04:45:34;13.23;;;7.20;;
22622;SDS011;11478;51.094;7.030;2023-07-29T04:50:48;8.95;;;5.70;;
22622;SDS011;11478;51.094;7.030;2023-07-29T04:56:07;13.85;;;6.65;;
22622;SDS011;11478;51.094;7.030;2023-07-29T04:58:33;9.23;;;6.38;;
22622;SDS011;11478;51.094;7.030;2023-07-29T05:01:13;10.13;;;6.45;;
22622;SDS011;11478;51.094;7.030;2023-07-29T05:03:48;14.55;;;7.25;;
22622;SDS011;11478;51.094;7.030;2023-07-29T05:06:15;17.88;;;7.93;;
22622;SDS011;11478;51.094;7.030;2023-07-29T05:08:41;46.28;;;13.23;;
22622;SDS011;11478;51.094;7.030;2023-07-29T05:11:07;24.50;;;10.13;;
22622;SDS011;11478;51.094;7.030;2023-07-29T05:13:33;16.42;;;8.90;;
22622;SDS011;11478;51.094;7.030;2023-07-29T05:15:59;13.15;;;8.02;;
22622;SDS011;11478;51.094;7.030;2023-07-29T05:18:25;14.95;;;7.32;;
22622;SDS011;11478;51.094;7.030;2023-07-29T05:23:21;8.68;;;6.28;;
22622;SDS011;11478;51.094;7.030;2023-07-29T05:25:49;9.15;;;6.72;;
22622;SDS011;11478;51.094;7.030;2023-07-29T05:28:15;8.23;;;6.20;;
22622;SDS011;11478;51.094;7.030;2023-07-29T05:30:43;10.70;;;6.78;;
22622;SDS011;11478;51.094;7.030;2023-07-29T05:33:09;9.98;;;6.30;;
22622;SDS011;11478;51.094;7.030;2023-07-29T05:35:54;10.77;;;7.30;;
22622;SDS011;11478;51.094;7.030;2023-07-29T05:38:20;11.20;;;6.38;;
22622;SDS011;11478;51.094;7.030;2023-07-29T05:40:47;8.07;;;6.00;;
22622;SDS011;11478;51.094;7.030;2023-07-29T05:43:13;9.95;;;7.10;;
22622;SDS011;11478;51.094;7.030;2023-07-29T05:45:47;7.80;;;6.50;;
22622;SDS011;11478;51.094;7.030;2023-07-29T05:48:13;9.57;;;7.05;;
22622;SDS011;11478;51.094;7.030;2023-07-29T05:50:42;9.07;;;8.10;;
22622;SDS011;11478;51.094;7.030;2023-07-29T05:53:08;11.75;;;7.72;;
22622;SDS011;11478;51.094;7.030;2023-07-29T05:55:34;11.73;;;7.35;;
22622;SDS011;11478;51.094;7.030;2023-07-29T05:58:00;12.23;;;7.10;;
22622;SDS011;11478;51.094;7.030;2023-07-29T06:00:37;11.13;;;7.18;;
22622;SDS011;11478;51.094;7.030;2023-07-29T06:03:03;14.13;;;8.10;;
22622;SDS011;11478;51.094;7.030;2023-07-29T06:05:37;10.45;;;7.22;;
22622;SDS011;11478;51.094;7.030;2023-07-29T06:08:05;9.45;;;6.75;;
22622;SDS011;11478;51.094;7.030;2023-07-29T06:13:29;7.85;;;6.20;;
22622;SDS011;11478;51.094;7.030;2023-07-29T06:15:57;10.32;;;6.63;;
22622;SDS011;11478;51.094;7.030;2023-07-29T06:18:24;9.45;;;7.10;;
22622;SDS011;11478;51.094;7.030;2023-07-29T06:20:50;13.40;;;6.63;;
22622;SDS011;11478;51.094;7.030;2023-07-29T06:23:16;11.60;;;7.00;;
22622;SDS011;11478;51.094;7.030;2023-07-29T06:28:30;10.80;;;7.20;;
22622;SDS011;11478;51.094;7.030;2023-07-29T06:33:49;10.50;;;6.88;;
22622;SDS011;11478;51.094;7.030;2023-07-29T06:36:16;12.68;;;8.30;;
22622;SDS011;11478;51.094;7.030;2023-07-29T06:38:43;13.68;;;8.35;;
22622;SDS011;11478;51.094;7.030;2023-07-29T06:41:09;11.80;;;8.02;;
22622;SDS011;11478;51.094;7.030;2023-07-29T06:43:38;13.35;;;8.68;;
22622;SDS011;11478;51.094;7.030;2023-07-29T06:46:04;14.50;;;7.30;;
22622;SDS011;11478;51.094;7.030;2023-07-29T06:48:36;9.85;;;6.70;;
22622;SDS011;11478;51.094;7.030;2023-07-29T06:51:04;9.48;;;5.78;;
22622;SDS011;11478;51.094;7.030;2023-07-29T06:56:04;13.32;;;5.43;;
22622;SDS011;11478;51.094;7.030;2023-07-29T06:58:32;9.02;;;5.47;;
22622;SDS011;11478;51.094;7.030;2023-07-29T07:00:59;7.43;;;4.93;;
22622;SDS011;11478;51.094;7.030;2023-07-29T07:03:24;5.30;;;4.40;;
22622;SDS011;11478;51.094;7.030;2023-07-29T07:05:50;11.65;;;5.13;;
22622;SDS011;11478;51.094;7.030;2023-07-29T07:08:27;6.85;;;4.80;;
22622;SDS011;11478;51.094;7.030;2023-07-29T07:10:56;4.97;;;4.47;;
22622;SDS011;11478;51.094;7.030;2023-07-29T07:13:24;6.28;;;4.63;;
22622;SDS011;11478;51.094;7.030;2023-07-29T07:15:49;7.13;;;5.00;;
22622;SDS011;11478;51.094;7.030;2023-07-29T07:18:18;7.07;;;4.95;;
22622;SDS011;11478;51.094;7.030;2023-07-29T07:20:48;6.55;;;4.90;;
22622;SDS011;11478;51.094;7.030;2023-07-29T07:23:15;8.82;;;5.05;;
22622;SDS011;11478;51.094;7.030;2023-07-29T07:25:41;9.02;;;5.93;;
22622;SDS011;11478;51.094;7.030;2023-07-29T07:28:10;7.90;;;5.80;;
22622;SDS011;11478;51.094;7.030;2023-07-29T07:30:39;6.90;;;5.82;;
22622;SDS011;11478;51.094;7.030;2023-07-29T07:33:26;9.95;;;5.80;;
22622;SDS011;11478;51.094;7.030;2023-07-29T07:38:27;6.40;;;4.90;;
22622;SDS011;11478;51.094;7.030;2023-07-29T07:40:54;8.65;;;4.50;;
22622;SDS011;11478;51.094;7.030;2023-07-29T07:43:22;7.97;;;4.45;;
22622;SDS011;11478;51.094;7.030;2023-07-29T07:45:48;4.78;;;4.15;;
22622;SDS011;11478;51.094;7.030;2023-07-29T07:48:14;5.68;;;4.40;;
22622;SDS011;11478;51.094;7.030;2023-07-29T07:50:42;4.88;;;4.10;;
22622;SDS011;11478;51.094;7.030;2023-07-29T07:53:09;7.60;;;4.28;;
22622;SDS011;11478;51.094;7.030;2023-07-29T07:55:46;6.07;;;2.80;;
22622;SDS011;11478;51.094;7.030;2023-07-29T07:58:20;3.10;;;2.40;;
22622;SDS011;11478;51.094;7.030;2023-07-29T08:03:37;4.38;;;2.60;;
22622;SDS011;11478;51.094;7.030;2023-07-29T08:11:25;4.57;;;2.70;;
22622;SDS011;11478;51.094;7.030;2023-07-29T08:13:54;5.13;;;2.53;;
22622;SDS011;11478;51.094;7.030;2023-07-29T08:16:20;3.05;;;2.55;;
22622;SDS011;11478;51.094;7.030;2023-07-29T08:18:46;4.47;;;2.70;;
22622;SDS011;11478;51.094;7.030;2023-07-29T08:21:14;6.38;;;3.03;;
22622;SDS011;11478;51.094;7.030;2023-07-29T08:23:45;4.00;;;2.60;;
22622;SDS011;11478;51.094;7.030;2023-07-29T08:26:11;5.30;;;3.00;;
22622;SDS011;11478;51.094;7.030;2023-07-29T08:28:38;5.57;;;2.40;;
22622;SDS011;11478;51.094;7.030;2023-07-29T08:31:05;4.25;;;2.45;;
22622;SDS011;11478;51.094;7.030;2023-07-29T08:33:39;3.40;;;2.40;;
22622;SDS011;11478;51.094;7.030;2023-07-29T08:36:05;5.55;;;2.50;;
22622;SDS011;11478;51.094;7.030;2023-07-29T08:38:37;3.63;;;2.47;;
22622;SDS011;11478;51.094;7.030;2023-07-29T08:41:10;3.25;;;2.47;;
22622;SDS011;11478;51.094;7.030;2023-07-29T08:44:06;4.68;;;2.20;;
22622;SDS011;11478;51.094;7.030;2023-07-29T08:46:50;5.47;;;2.30;;
22622;SDS011;11478;51.094;7.030;2023-07-29T08:49:21;3.60;;;2.40;;
22622;SDS011;11478;51.094;7.030;2023-07-29T08:51:49;5.63;;;2.58;;
22622;SDS011;11478;51.094;7.030;2023-07-29T08:54:18;4.75;;;2.13;;
22622;SDS011;11478;51.094;7.030;2023-07-29T08:56:54;5.35;;;2.38;;
22622;SDS011;11478;51.094;7.030;2023-07-29T08:59:20;6.38;;;2.45;;
22622;SDS011;11478;51.094;7.030;2023-07-29T09:01:51;5.53;;;2.53;;
22622;SDS011;11478;51.094;7.030;2023-07-29T09:04:20;5.63;;;2.35;;
22622;SDS011;11478;51.094;7.030;2023-07-29T09:06:52;2.70;;;1.80;;
22622;SDS011;11478;51.094;7.030;2023-07-29T09:09:21;7.32;;;2.28;;
22622;SDS011;11478;51.094;7.030;2023-07-29T09:11:48;4.60;;;1.92;;
22622;SDS011;11478;51.094;7.030;2023-07-29T09:14:14;2.17;;;1.88;;
22622;SDS011;11478;51.094;7.030;2023-07-29T09:16:45;3.85;;;1.88;;
22622;SDS011;11478;51.094;7.030;2023-07-29T09:19:24;3.45;;;2.00;;
22622;SDS011;11478;51.094;7.030;2023-07-29T09:24:31;2.40;;;2.08;;
22622;SDS011;11478;51.094;7.030;2023-07-29T09:26:57;3.72;;;1.73;;
22622;SDS011;11478;51.094;7.030;2023-07-29T09:29:24;5.20;;;2.00;;
22622;SDS011;11478;51.094;7.030;2023-07-29T09:32:18;2.50;;;1.83;;
22622;SDS011;11478;51.094;7.030;2023-07-29T09:34:52;5.63;;;1.70;;
22622;SDS011;11478;51.094;7.030;2023-07-29T09:37:21;3.33;;;1.60;;
22622;SDS011;11478;51.094;7.030;2023-07-29T09:42:21;3.38;;;1.60;;
22622;SDS011;11478;51.094;7.030;2023-07-29T09:44:51;4.35;;;1.60;;
22622;SDS011;11478;51.094;7.030;2023-07-29T09:47:22;2.10;;;1.63;;
22622;SDS011;11478;51.094;7.030;2023-07-29T09:49:49;3.95;;;1.67;;
22622;SDS011;11478;51.094;7.030;2023-07-29T09:52:16;2.47;;;1.77;;
22622;SDS011;11478;51.094;7.030;2023-07-29T09:54:48;4.22;;;2.05;;
22622;SDS011;11478;51.094;7.030;2023-07-29T09:57:21;2.80;;;2.40;;
22622;SDS011;11478;51.094;7.030;2023-07-29T09:59:55;4.70;;;2.42;;
22622;SDS011;11478;51.094;7.030;2023-07-29T10:02:22;3.75;;;2.15;;
22622;SDS011;11478;51.094;7.030;2023-07-29T10:07:37;5.43;;;2.30;;
22622;SDS011;11478;51.094;7.030;2023-07-29T10:10:05;2.65;;;2.20;;
22622;SDS011;11478;51.094;7.030;2023-07-29T10:12:32;2.45;;;2.08;;
22622;SDS011;11478;51.094;7.030;2023-07-29T10:20:07;5.35;;;1.92;;
22622;SDS011;11478;51.094;7.030;2023-07-29T10:22:39;3.65;;;2.10;;
22622;SDS011;11478;51.094;7.030;2023-07-29T10:25:16;2.65;;;2.08;;
22622;SDS011;11478;51.094;7.030;2023-07-29T10:27:53;2.63;;;1.80;;
22622;SDS011;11478;51.094;7.030;2023-07-29T10:30:22;5.13;;;1.98;;
22622;SDS011;11478;51.094;7.030;2023-07-29T10:32:54;3.65;;;2.00;;
22622;SDS011;11478;51.094;7.030;2023-07-29T10:35:24;3.60;;;2.05;;
22622;SDS011;11478;51.094;7.030;2023-07-29T10:37:56;3.13;;;1.92;;
22622;SDS011;11478;51.094;7.030;2023-07-29T10:40:23;3.70;;;2.30;;
22622;SDS011;11478;51.094;7.030;2023-07-29T10:42:59;2.53;;;2.28;;
22622;SDS011;11478;51.094;7.030;2023-07-29T10:45:37;2.67;;;2.22;;
22622;SDS011;11478;51.094;7.030;2023-07-29T10:48:13;6.05;;;2.58;;
22622;SDS011;11478;51.094;7.030;2023-07-29T10:53:55;4.88;;;1.95;;
22622;SDS011;11478;51.094;7.030;2023-07-29T10:56:31;3.53;;;2.30;;
22622;SDS011;11478;51.094;7.030;2023-07-29T11:01:38;3.22;;;2.05;;
22622;SDS011;11478;51.094;7.030;2023-07-29T11:15:35;4.07;;;2.28;;
22622;SDS011;11478;51.094;7.030;2023-07-29T11:18:03;3.67;;;2.08;;
22622;SDS011;11478;51.094;7.030;2023-07-29T11:20:29;4.78;;;2.03;;
22622;SDS011;11478;51.094;7.030;2023-07-29T11:23:01;2.53;;;1.80;;
22622;SDS011;11478;51.094;7.030;2023-07-29T11:25:29;2.50;;;1.90;;
22622;SDS011;11478;51.094;7.030;2023-07-29T11:28:01;3.00;;;1.88;;
22622;SDS011;11478;51.094;7.030;2023-07-29T11:30:39;3.50;;;1.63;;
22622;SDS011;11478;51.094;7.030;2023-07-29T11:33:05;2.70;;;1.70;;
22622;SDS011;11478;51.094;7.030;2023-07-29T11:35:34;3.08;;;2.10;;
22622;SDS011;11478;51.094;7.030;2023-07-29T11:38:02;4.38;;;2.10;;
22622;SDS011;11478;51.094;7.030;2023-07-29T11:40:30;3.95;;;1.95;;
22622;SDS011;11478;51.094;7.030;2023-07-29T11:45:44;2.45;;;1.80;;
22622;SDS011;11478;51.094;7.030;2023-07-29T11:48:18;2.67;;;1.70;;
22622;SDS011;11478;51.094;7.030;2023-07-29T11:50:51;2.03;;;1.75;;
22622;SDS011;11478;51.094;7.030;2023-07-29T11:53:19;2.58;;;1.60;;
22622;SDS011;11478;51.094;7.030;2023-07-29T11:55:49;3.17;;;1.77;;
22622;SDS011;11478;51.094;7.030;2023-07-29T11:58:26;2.60;;;1.80;;
22622;SDS011;11478;51.094;7.030;2023-07-29T12:00:52;7.88;;;2.10;;
22622;SDS011;11478;51.094;7.030;2023-07-29T12:03:19;3.85;;;2.15;;
22622;SDS011;11478;51.094;7.030;2023-07-29T12:05:45;2.85;;;2.00;;
22622;SDS011;11478;51.094;7.030;2023-07-29T12:10:43;4.05;;;2.05;;
22622;SDS011;11478;51.094;7.030;2023-07-29T12:13:10;5.45;;;2.20;;
22622;SDS011;11478;51.094;7.030;2023-07-29T12:15:37;4.65;;;2.30;;
22622;SDS011;11478;51.094;7.030;2023-07-29T12:18:07;4.43;;;2.28;;
22622;SDS011;11478;51.094;7.030;2023-07-29T12:20:33;5.40;;;2.40;;
22622;SDS011;11478;51.094;7.030;2023-07-29T12:23:02;4.60;;;2.10;;
22622;SDS011;11478;51.094;7.030;2023-07-29T12:25:33;2.70;;;2.25;;
22622;SDS011;11478;51.094;7.030;2023-07-29T12:28:05;2.72;;;1.92;;
22622;SDS011;11478;51.094;7.030;2023-07-29T12:30:31;2.00;;;1.80;;
22622;SDS011;11478;51.094;7.030;2023-07-29T12:33:02;2.78;;;1.90;;
22622;SDS011;11478;51.094;7.030;2023-07-29T12:35:35;2.65;;;1.90;;
22622;SDS011;11478;51.094;7.030;2023-07-29T12:38:05;3.25;;;2.08;;
22622;SDS011;11478;51.094;7.030;2023-07-29T12:40:31;5.95;;;2.20;;
22622;SDS011;11478;51.094;7.030;2023-07-29T12:42:57;2.58;;;1.90;;
22622;SDS011;11478;51.094;7.030;2023-07-29T12:45:23;3.05;;;1.85;;
22622;SDS011;11478;51.094;7.030;2023-07-29T12:47:58;2.17;;;1.95;;
22622;SDS011;11478;51.094;7.030;2023-07-29T12:50:24;3.25;;;2.13;;
22622;SDS011;11478;51.094;7.030;2023-07-29T12:52:53;2.70;;;1.83;;
22622;SDS011;11478;51.094;7.030;2023-07-29T12:55:19;2.90;;;1.80;;
22622;SDS011;11478;51.094;7.030;2023-07-29T12:57:52;3.15;;;2.03;;
22622;SDS011;11478;51.094;7.030;2023-07-29T13:00:18;4.32;;;1.85;;
22622;SDS011;11478;51.094;7.030;2023-07-29T13:02:48;2.65;;;1.73;;
22622;SDS011;11478;51.094;7.030;2023-07-29T13:05:13;2.47;;;2.00;;
22622;SDS011;11478;51.094;7.030;2023-07-29T13:07:43;3.75;;;2.00;;
22622;SDS011;11478;51.094;7.030;2023-07-29T13:10:09;2.60;;;1.63;;
22622;SDS011;11478;51.094;7.030;2023-07-29T13:12:36;3.53;;;1.95;;
22622;SDS011;11478;51.094;7.030;2023-07-29T13:15:02;3.80;;;2.00;;
22622;SDS011;11478;51.094;7.030;2023-07-29T13:19:59;2.22;;;1.92;;
22622;SDS011;11478;51.094;7.030;2023-07-29T13:22:26;4.68;;;2.10;;
22622;SDS011;11478;51.094;7.030;2023-07-29T13:24:52;2.45;;;2.03;;
22622;SDS011;11478;51.094;7.030;2023-07-29T13:27:18;3.83;;;2.00;;
22622;SDS011;11478;51.094;7.030;2023-07-29T13:29:44;2.88;;;2.20;;
22622;SDS011;11478;51.094;7.030;2023-07-29T13:32:11;2.13;;;1.90;;
22622;SDS011;11478;51.094;7.030;2023-07-29T13:34:37;4.88;;;2.20;;
22622;SDS011;11478;51.094;7.030;2023-07-29T13:37:12;6.75;;;2.70;;
22622;SDS011;11478;51.094;7.030;2023-07-29T13:39:38;3.70;;;2.15;;
22622;SDS011;11478;51.094;7.030;2023-07-29T13:42:04;3.78;;;2.22;;
22622;SDS011;11478;51.094;7.030;2023-07-29T13:44:31;3.17;;;2.00;;
22622;SDS011;11478;51.094;7.030;2023-07-29T13:46:57;5.85;;;2.30;;
22622;SDS011;11478;51.094;7.030;2023-07-29T13:49:29;5.95;;;2.72;;
22622;SDS011;11478;51.094;7.030;2023-07-29T13:51:57;3.40;;;2.35;;
22622;SDS011;11478;51.094;7.030;2023-07-29T13:54:25;4.55;;;2.28;;
22622;SDS011;11478;51.094;7.030;2023-07-29T13:56:53;2.97;;;2.30;;
22622;SDS011;11478;51.094;7.030;2023-07-29T13:59:24;8.13;;;2.65;;
22622;SDS011;11478;51.094;7.030;2023-07-29T14:01:50;6.00;;;2.65;;
22622;SDS011;11478;51.094;7.030;2023-07-29T14:04:16;3.85;;;2.70;;
22622;SDS011;11478;51.094;7.030;2023-07-29T14:06:42;4.20;;;2.83;;
22622;SDS011;11478;51.094;7.030;2023-07-29T14:09:12;8.40;;;2.72;;
22622;SDS011;11478;51.094;7.030;2023-07-29T14:11:38;4.18;;;2.70;;
22622;SDS011;11478;51.094;7.030;2023-07-29T14:14:04;4.82;;;2.83;;
22622;SDS011;11478;51.094;7.030;2023-07-29T14:16:33;6.78;;;3.40;;
22622;SDS011;11478;51.094;7.030;2023-07-29T14:19:00;7.10;;;3.00;;
22622;SDS011;11478;51.094;7.030;2023-07-29T14:21:26;3.05;;;2.72;;
22622;SDS011;11478;51.094;7.030;2023-07-29T14:23:53;4.20;;;2.80;;
22622;SDS011;11478;51.094;7.030;2023-07-29T14:26:19;3.42;;;2.70;;
22622;SDS011;11478;51.094;7.030;2023-07-29T14:28:45;2.78;;;2.58;;
22622;SDS011;11478;51.094;7.030;2023-07-29T14:31:18;4.45;;;2.60;;
22622;SDS011;11478;51.094;7.030;2023-07-29T14:33:47;2.30;;;2.10;;
22622;SDS011;11478;51.094;7.030;2023-07-29T14:36:18;3.03;;;2.33;;
22622;SDS011;11478;51.094;7.030;2023-07-29T14:38:44;4.13;;;2.55;;
22622;SDS011;11478;51.094;7.030;2023-07-29T14:41:10;4.50;;;2.30;;
22622;SDS011;11478;51.094;7.030;2023-07-29T14:43:37;3.63;;;2.33;;
22622;SDS011;11478;51.094;7.030;2023-07-29T14:46:05;3.25;;;2.05;;
22622;SDS011;11478;51.094;7.030;2023-07-29T14:48:33;4.75;;;2.40;;
22622;SDS011;11478;51.094;7.030;2023-07-29T14:50:59;7.22;;;2.60;;
22622;SDS011;11478;51.094;7.030;2023-07-29T14:53:25;2.33;;;2.03;;
22622;SDS011;11478;51.094;7.030;2023-07-29T14:55:53;3.17;;;2.47;;
22622;SDS011;11478;51.094;7.030;2023-07-29T14:58:19;3.05;;;2.03;;
22622;SDS011;11478;51.094;7.030;2023-07-29T15:00:47;3.80;;;2.08;;
22622;SDS011;11478;51.094;7.030;2023-07-29T15:03:14;2.72;;;2.10;;
22622;SDS011;11478;51.094;7.030;2023-07-29T15:05:46;2.92;;;2.25;;
22622;SDS011;11478;51.094;7.030;2023-07-29T15:08:12;3.53;;;2.00;;
22622;SDS011;11478;51.094;7.030;2023-07-29T15:10:39;2.50;;;2.28;;
22622;SDS011;11478;51.094;7.030;2023-07-29T15:13:16;3.20;;;2.20;;
22622;SDS011;11478;51.094;7.030;2023-07-29T15:15:53;5.18;;;2.20;;
22622;SDS011;11478;51.094;7.030;2023-07-29T15:18:20;5.15;;;2.42;;
22622;SDS011;11478;51.094;7.030;2023-07-29T15:20:52;3.80;;;2.30;;
22622;SDS011;11478;51.094;7.030;2023-07-29T15:23:18;3.28;;;2.15;;
22622;SDS011;11478;51.094;7.030;2023-07-29T15:25:44;4.32;;;2.20;;
22622;SDS011;11478;51.094;7.030;2023-07-29T15:28:14;2.63;;;2.20;;
22622;SDS011;11478;51.094;7.030;2023-07-29T15:30:43;4.47;;;2.22;;
22622;SDS011;11478;51.094;7.030;2023-07-29T15:33:10;4.97;;;2.67;;
22622;SDS011;11478;51.094;7.030;2023-07-29T15:35:58;3.88;;;2.15;;
22622;SDS011;11478;51.094;7.030;2023-07-29T15:38:25;2.88;;;2.22;;
22622;SDS011;11478;51.094;7.030;2023-07-29T15:40:51;3.85;;;1.98;;
22622;SDS011;11478;51.094;7.030;2023-07-29T15:43:17;3.03;;;2.10;;
22622;SDS011;11478;51.094;7.030;2023-07-29T15:45:43;3.38;;;2.50;;
22622;SDS011;11478;51.094;7.030;2023-07-29T15:48:11;3.10;;;2.58;;
22622;SDS011;11478;51.094;7.030;2023-07-29T15:50:38;4.00;;;2.50;;
22622;SDS011;11478;51.094;7.030;2023-07-29T15:53:10;2.30;;;2.10;;
22622;SDS011;11478;51.094;7.030;2023-07-29T15:55:36;4.05;;;2.25;;
22622;SDS011;11478;51.094;7.030;2023-07-29T15:58:08;5.03;;;2.65;;
22622;SDS011;11478;51.094;7.030;2023-07-29T16:00:34;4.43;;;2.50;;
22622;SDS011;11478;51.094;7.030;2023-07-29T16:03:02;8.32;;;2.60;;
22622;SDS011;11478;51.094;7.030;2023-07-29T16:05:28;3.28;;;1.98;;
22622;SDS011;11478;51.094;7.030;2023-07-29T16:07:54;4.47;;;2.20;;
22622;SDS011;11478;51.094;7.030;2023-07-29T16:10:22;6.10;;;2.70;;
22622;SDS011;11478;51.094;7.030;2023-07-29T16:12:51;6.57;;;2.35;;
22622;SDS011;11478;51.094;7.030;2023-07-29T16:15:16;5.50;;;2.20;;
22622;SDS011;11478;51.094;7.030;2023-07-29T16:17:47;2.30;;;2.10;;
22622;SDS011;11478;51.094;7.030;2023-07-29T16:20:17;4.97;;;2.47;;
22622;SDS011;11478;51.094;7.030;2023-07-29T16:25:53;2.55;;;2.10;;
22622;SDS011;11478;51.094;7.030;2023-07-29T16:28:19;3.38;;;2.13;;
22622;SDS011;11478;51.094;7.030;2023-07-29T16:30:48;2.22;;;2.03;;
22622;SDS011;11478;51.094;7.030;2023-07-29T16:33:14;3.47;;;1.85;;
22622;SDS011;11478;51.094;7.030;2023-07-29T16:35:41;4.00;;;1.90;;
22622;SDS011;11478;51.094;7.030;2023-07-29T16:38:07;5.15;;;2.53;;
22622;SDS011;11478;51.094;7.030;2023-07-29T16:40:33;3.45;;;1.98;;
22622;SDS011;11478;51.094;7.030;2023-07-29T16:42:59;4.35;;;2.10;;
22622;SDS011;11478;51.094;7.030;2023-07-29T16:48:00;5.10;;;2.40;;